createdAt,value
2023-04-09T00:00:43.723Z,30.60
2023-04-09T00:03:10.851Z,29.80
2023-04-09T00:05:41.397Z,30.65
2023-04-09T00:08:08.195Z,32.63
2023-04-09T00:10:34.992Z,32.88
2023-04-09T00:13:01.664Z,32.83
2023-04-09T00:15:31.732Z,33.85
2023-04-09T00:17:59.725Z,34.33
2023-04-09T00:20:26.615Z,34.40
2023-04-09T00:22:54.068Z,34.63
2023-04-09T00:25:21.104Z,32.70
2023-04-09T00:27:47.791Z,32.60
2023-04-09T00:30:14.622Z,34.53
2023-04-09T00:32:41.469Z,32.95
2023-04-09T00:35:08.953Z,33.47
2023-04-09T00:37:35.755Z,33.28
2023-04-09T00:40:02.544Z,33.80
2023-04-09T00:42:33.592Z,33.83
2023-04-09T00:45:00.793Z,34.63
2023-04-09T00:47:29.469Z,34.70
2023-04-09T00:52:24.752Z,32.85
2023-04-09T00:54:52.650Z,33.28
2023-04-09T00:57:19.755Z,35.58
2023-04-09T00:59:47.445Z,33.42
2023-04-09T01:02:14.157Z,34.58
2023-04-09T01:04:42.948Z,33.63
2023-04-09T01:10:01.358Z,33.75
2023-04-09T01:12:51.959Z,35.13
2023-04-09T01:15:25.945Z,33.85
2023-04-09T01:18:04.774Z,33.35
2023-04-09T01:20:59.264Z,34.38
2023-04-09T01:23:57.939Z,33.38
2023-04-09T01:26:38.114Z,33.78
2023-04-09T01:29:06.923Z,31.92
2023-04-09T01:31:38.996Z,36.03
2023-04-09T01:34:08.696Z,32.78
2023-04-09T01:36:36.731Z,36.08
2023-04-09T01:39:04.929Z,35.30
2023-04-09T01:41:32.875Z,34.83
2023-04-09T01:44:01.897Z,35.63
2023-04-09T01:46:29.991Z,35.72
2023-04-09T01:48:57.389Z,33.97
2023-04-09T01:51:24.466Z,33.33
2023-04-09T01:53:51.506Z,33.72
2023-04-09T01:56:18.196Z,35.05
2023-04-09T01:58:44.901Z,35.03
2023-04-09T02:01:22.797Z,33.45
2023-04-09T02:03:54.744Z,33.78
2023-04-09T02:06:47.324Z,33.38
2023-04-09T02:09:18.252Z,33.72
2023-04-09T02:11:48.005Z,34.05
2023-04-09T02:14:16.225Z,33.42
2023-04-09T02:16:43.429Z,32.90
2023-04-09T02:19:10.443Z,36.53
2023-04-09T02:21:37.177Z,33.42
2023-04-09T02:24:03.944Z,34.25
2023-04-09T02:26:30.578Z,35.28
2023-04-09T02:28:57.223Z,36.35
2023-04-09T02:31:24.037Z,35.97
2023-04-09T02:33:51.550Z,35.90
2023-04-09T02:36:18.198Z,35.28
2023-04-09T02:38:44.851Z,36.97
2023-04-09T02:41:11.596Z,35.40
2023-04-09T02:43:38.248Z,36.05
2023-04-09T02:46:05.148Z,34.85
2023-04-09T02:48:32.619Z,34.55
2023-04-09T02:50:59.424Z,35.92
2023-04-09T02:53:26.316Z,36.15
2023-04-09T02:55:56.080Z,35.90
2023-04-09T02:58:22.808Z,36.70
2023-04-09T03:00:49.467Z,34.60
2023-04-09T03:03:18.373Z,34.72
2023-04-09T03:05:45.787Z,35.05
2023-04-09T03:08:12.436Z,34.50
2023-04-09T03:10:39.167Z,35.47
2023-04-09T03:13:05.877Z,34.22
2023-04-09T03:15:32.537Z,36.50
2023-04-09T03:17:59.227Z,34.72
2023-04-09T03:20:25.907Z,35.72
2023-04-09T03:22:52.550Z,35.20
2023-04-09T03:25:20.814Z,35.88
2023-04-09T03:27:47.631Z,36.10
2023-04-09T03:30:14.433Z,35.75
2023-04-09T03:32:41.204Z,35.30
2023-04-09T03:35:08.309Z,36.22
2023-04-09T03:37:35.080Z,34.33
2023-04-09T03:40:02.122Z,34.70
2023-04-09T03:42:28.967Z,35.10
2023-04-09T03:44:55.735Z,34.97
2023-04-09T03:47:22.426Z,36.33
2023-04-09T03:49:49.182Z,35.38
2023-04-09T03:52:15.893Z,35.33
2023-04-09T03:54:43.541Z,33.97
2023-04-09T03:57:10.495Z,33.40
2023-04-09T03:59:37.233Z,34.28
2023-04-09T04:02:03.938Z,35.42
2023-04-09T04:04:30.799Z,32.53
2023-04-09T04:06:57.727Z,34.30
2023-04-09T04:09:24.515Z,32.72
2023-04-09T04:11:51.342Z,32.25
2023-04-09T04:14:18.068Z,33.10
2023-04-09T04:16:44.825Z,33.58
2023-04-09T04:19:12.088Z,32.97
2023-04-09T04:21:38.719Z,31.65
2023-04-09T04:24:05.980Z,32.40
2023-04-09T04:26:32.724Z,32.80
2023-04-09T04:28:59.362Z,32.40
2023-04-09T04:31:26.136Z,31.90
2023-04-09T04:33:53.868Z,34.47
2023-04-09T04:36:20.700Z,33.40
2023-04-09T04:38:47.386Z,33.03
2023-04-09T04:41:14.087Z,33.05
2023-04-09T04:43:41.542Z,32.40
2023-04-09T04:46:08.448Z,31.60
2023-04-09T04:48:35.260Z,32.58
2023-04-09T04:51:02.466Z,31.63
2023-04-09T04:53:29.208Z,31.98
2023-04-09T04:55:55.928Z,32.63
2023-04-09T04:58:22.630Z,32.53
2023-04-09T05:00:49.447Z,31.90
2023-04-09T05:03:16.447Z,32.50
2023-04-09T05:05:43.552Z,30.95
2023-04-09T05:08:10.430Z,32.35
2023-04-09T05:10:37.238Z,32.85
2023-04-09T05:13:04.123Z,31.73
2023-04-09T05:15:31.003Z,31.95
2023-04-09T05:17:58.181Z,32.28
2023-04-09T05:20:24.996Z,32.75
2023-04-09T05:22:52.279Z,32.60
2023-04-09T05:25:19.247Z,31.23
2023-04-09T05:27:45.978Z,32.38
2023-04-09T05:30:13.392Z,32.20
2023-04-09T05:32:40.415Z,32.83
2023-04-09T05:35:07.534Z,32.17
2023-04-09T05:37:34.352Z,32.15
2023-04-09T05:40:01.154Z,32.00
2023-04-09T05:42:27.934Z,32.03
2023-04-09T05:44:54.725Z,31.42
2023-04-09T05:47:21.818Z,31.50
2023-04-09T05:49:48.468Z,32.60
2023-04-09T05:52:16.830Z,32.10
2023-04-09T05:54:43.495Z,31.33
2023-04-09T05:57:10.433Z,31.92
2023-04-09T05:59:37.105Z,34.03
2023-04-09T06:02:03.952Z,32.15
2023-04-09T06:04:30.653Z,34.15
2023-04-09T06:07:00.176Z,32.67
2023-04-09T06:09:30.221Z,33.35
2023-04-09T06:11:57.719Z,33.13
2023-04-09T06:14:24.532Z,31.92
2023-04-09T06:16:51.285Z,33.75
2023-04-09T06:19:19.062Z,35.35
2023-04-09T06:21:46.092Z,38.67
2023-04-09T06:24:12.781Z,38.65
2023-04-09T06:26:39.611Z,37.80
2023-04-09T06:29:06.392Z,38.28
2023-04-09T06:31:33.423Z,38.90
2023-04-09T06:34:01.277Z,38.05
2023-04-09T06:36:28.091Z,38.17
2023-04-09T06:38:54.848Z,38.80
2023-04-09T06:41:22.651Z,38.35
2023-04-09T06:43:49.947Z,40.27
2023-04-09T06:46:20.323Z,38.58
2023-04-09T06:48:47.437Z,40.45
2023-04-09T06:51:14.951Z,39.42
2023-04-09T06:53:42.021Z,40.53
2023-04-09T06:56:08.981Z,41.30
2023-04-09T06:58:35.648Z,39.88
2023-04-09T07:01:02.933Z,40.08
2023-04-09T07:03:30.304Z,40.28
2023-04-09T07:05:57.676Z,39.72
2023-04-09T07:08:24.588Z,38.25
2023-04-09T07:10:51.319Z,38.70
2023-04-09T07:13:18.060Z,39.17
2023-04-09T07:15:44.734Z,39.78
2023-04-09T07:18:11.488Z,38.15
2023-04-09T07:20:38.310Z,37.97
2023-04-09T07:23:05.241Z,35.97
2023-04-09T07:25:32.428Z,34.53
2023-04-09T07:27:59.275Z,35.75
2023-04-09T07:30:26.134Z,33.15
2023-04-09T07:32:52.956Z,32.67
2023-04-09T07:35:19.863Z,33.95
2023-04-09T07:37:46.649Z,30.35
2023-04-09T07:40:13.510Z,31.20
2023-04-09T07:42:40.667Z,31.13
2023-04-09T07:45:07.971Z,30.30
2023-04-09T07:47:34.697Z,29.20
2023-04-09T07:50:01.646Z,29.65
2023-04-09T07:52:28.378Z,28.88
2023-04-09T07:54:55.052Z,29.85
2023-04-09T07:57:22.142Z,29.45
2023-04-09T07:59:49.072Z,30.02
2023-04-09T08:02:16.050Z,29.70
2023-04-09T08:04:42.941Z,28.98
2023-04-09T08:07:09.854Z,30.42
2023-04-09T08:09:36.579Z,32.33
2023-04-09T08:12:03.463Z,29.38
2023-04-09T08:14:30.426Z,30.77
2023-04-09T08:16:57.179Z,29.20
2023-04-09T08:19:24.747Z,29.48
2023-04-09T08:21:52.509Z,28.65
2023-04-09T08:24:19.362Z,28.67
2023-04-09T08:26:46.599Z,26.98
2023-04-09T08:29:14.912Z,25.48
2023-04-09T08:31:42.055Z,25.80
2023-04-09T08:34:08.807Z,25.77
2023-04-09T08:36:35.858Z,25.77
2023-04-09T08:39:03.584Z,23.75
2023-04-09T08:41:30.825Z,25.10
2023-04-09T08:43:59.509Z,25.65
2023-04-09T08:46:27.703Z,24.88
2023-04-09T08:48:55.079Z,24.77
2023-04-09T08:51:24.395Z,25.95
2023-04-09T08:54:01.333Z,26.05
2023-04-09T08:56:30.778Z,25.52
2023-04-09T08:58:57.571Z,27.38
2023-04-09T09:01:31.849Z,23.58
2023-04-09T09:04:06.739Z,26.27
2023-04-09T09:06:35.659Z,26.20
2023-04-09T09:09:13.925Z,25.73
2023-04-09T09:11:41.566Z,27.70
2023-04-09T09:14:10.225Z,29.60
2023-04-09T09:16:44.680Z,30.77
2023-04-09T09:19:30.468Z,28.58
2023-04-09T09:22:02.231Z,30.30
2023-04-09T09:24:32.565Z,29.70
2023-04-09T09:26:59.352Z,31.10
2023-04-09T09:29:26.509Z,29.33
2023-04-09T09:31:54.997Z,31.63
2023-04-09T09:34:24.335Z,30.77
2023-04-09T09:36:51.251Z,29.27
2023-04-09T09:39:18.756Z,31.02
2023-04-09T09:41:46.507Z,30.90
2023-04-09T09:44:31.605Z,32.37
2023-04-09T09:46:59.124Z,31.23
2023-04-09T09:49:25.912Z,30.20
2023-04-09T09:51:56.753Z,31.65
2023-04-09T09:54:26.275Z,29.83
2023-04-09T09:56:56.131Z,31.85
2023-04-09T09:59:31.055Z,27.70
2023-04-09T10:02:01.518Z,29.83
2023-04-09T10:04:30.093Z,28.13
2023-04-09T10:06:57.341Z,30.35
2023-04-09T10:09:27.848Z,30.70
2023-04-09T10:11:55.992Z,30.00
2023-04-09T10:14:23.353Z,31.42
2023-04-09T10:16:51.525Z,30.55
2023-04-09T10:19:18.957Z,29.27
2023-04-09T10:21:54.777Z,30.50
2023-04-09T10:24:22.412Z,28.80
2023-04-09T10:26:50.390Z,31.00
2023-04-09T10:29:18.225Z,27.25
2023-04-09T10:31:55.971Z,27.43
2023-04-09T10:34:26.624Z,30.92
2023-04-09T10:36:56.573Z,30.10
2023-04-09T10:39:32.017Z,29.75
2023-04-09T10:42:02.267Z,29.13
2023-04-09T10:44:32.269Z,27.65
2023-04-09T10:46:59.330Z,29.38
2023-04-09T10:49:27.383Z,27.80
2023-04-09T10:52:01.754Z,24.45
2023-04-09T10:54:34.250Z,26.38
2023-04-09T10:57:21.489Z,25.02
2023-04-09T10:59:55.440Z,25.13
2023-04-09T11:02:40.449Z,24.98
2023-04-09T11:05:25.386Z,22.05
2023-04-09T11:08:06.310Z,25.65
2023-04-09T11:10:33.868Z,24.40
2023-04-09T11:13:01.354Z,24.23
2023-04-09T11:15:28.677Z,21.25
2023-04-09T11:17:56.180Z,20.92
2023-04-09T11:20:25.829Z,20.63
2023-04-09T11:22:54.411Z,20.55
2023-04-09T11:28:08.118Z,22.48
2023-04-09T11:30:36.148Z,19.55
2023-04-09T11:33:03.066Z,17.30
2023-04-09T11:35:29.945Z,17.77
2023-04-09T11:37:56.640Z,18.38
2023-04-09T11:40:25.604Z,18.00
2023-04-09T11:42:54.140Z,18.83
2023-04-09T11:45:25.854Z,17.98
2023-04-09T11:47:53.592Z,17.70
2023-04-09T11:50:21.401Z,17.25
2023-04-09T11:52:50.016Z,17.67
2023-04-09T11:57:53.810Z,16.00
2023-04-09T12:00:20.926Z,16.35
2023-04-09T12:02:49.370Z,15.57
2023-04-09T12:07:58.278Z,14.65
2023-04-09T12:10:29.535Z,13.30
2023-04-09T12:13:02.363Z,13.57
2023-04-09T12:15:32.943Z,12.13
2023-04-09T12:18:00.403Z,10.95
2023-04-09T12:20:32.496Z,12.10
2023-04-09T12:23:01.252Z,10.73
2023-04-09T12:25:28.185Z,12.45
2023-04-09T12:27:55.947Z,12.93
2023-04-09T12:30:23.654Z,12.93
2023-04-09T12:32:52.413Z,12.43
2023-04-09T12:35:19.591Z,13.02
2023-04-09T12:37:47.274Z,12.88
2023-04-09T12:40:14.457Z,12.93
2023-04-09T12:42:46.194Z,12.02
2023-04-09T12:45:14.314Z,12.82
2023-04-09T12:47:41.681Z,11.80
2023-04-09T12:50:09.694Z,12.25
2023-04-09T12:52:36.834Z,11.52
2023-04-09T12:55:04.679Z,12.05
2023-04-09T12:57:31.865Z,11.68
2023-04-09T12:59:58.972Z,10.77
2023-04-09T13:02:26.407Z,10.40
2023-04-09T13:04:53.560Z,10.57
2023-04-09T13:07:20.818Z,10.88
2023-04-09T13:09:50.270Z,10.05
2023-04-09T13:12:17.780Z,9.43
2023-04-09T13:14:47.296Z,10.75
2023-04-09T13:17:14.719Z,10.18
2023-04-09T13:19:42.821Z,9.82
2023-04-09T13:22:10.476Z,8.90
2023-04-09T13:24:38.130Z,8.93
2023-04-09T13:27:05.731Z,8.97
2023-04-09T13:29:32.985Z,9.73
2023-04-09T13:32:02.591Z,10.20
2023-04-09T13:34:29.664Z,10.75
2023-04-09T13:36:57.092Z,10.50
2023-04-09T13:39:24.250Z,9.32
2023-04-09T13:41:51.500Z,9.85
2023-04-09T13:44:18.602Z,9.13
2023-04-09T13:46:46.005Z,9.45
2023-04-09T13:49:13.101Z,8.60
2023-04-09T13:51:40.664Z,10.30
2023-04-09T13:54:08.661Z,10.27
2023-04-09T13:56:35.853Z,12.30
2023-04-09T13:59:02.970Z,10.85
2023-04-09T14:01:30.727Z,10.00
2023-04-09T14:03:58.019Z,10.77
2023-04-09T14:06:25.943Z,10.80
2023-04-09T14:08:53.369Z,10.30
2023-04-09T14:11:20.963Z,10.40
2023-04-09T14:13:48.481Z,10.77
2023-04-09T14:16:15.709Z,12.15
2023-04-09T14:18:42.923Z,11.95
2023-04-09T14:21:10.491Z,11.23
2023-04-09T14:23:38.027Z,11.40
2023-04-09T14:26:06.466Z,11.35
2023-04-09T14:31:01.160Z,10.63
2023-04-09T14:33:28.328Z,10.30
2023-04-09T14:35:55.682Z,10.40
2023-04-09T14:38:26.543Z,9.82
2023-04-09T14:40:54.043Z,10.10
2023-04-09T14:43:21.127Z,10.43
2023-04-09T14:45:48.249Z,10.48
2023-04-09T14:48:15.420Z,10.45
2023-04-09T14:50:43.054Z,10.05
2023-04-09T14:53:10.280Z,9.40
2023-04-09T14:55:37.348Z,10.45
2023-04-09T14:58:07.124Z,10.40
2023-04-09T15:00:36.090Z,9.70
2023-04-09T15:03:03.926Z,10.18
2023-04-09T15:05:31.312Z,10.18
2023-04-09T15:07:58.506Z,9.73
2023-04-09T15:10:25.677Z,9.65
2023-04-09T15:12:52.931Z,9.38
2023-04-09T15:15:20.046Z,10.65
2023-04-09T15:17:47.231Z,9.68
2023-04-09T15:20:14.426Z,9.68
2023-04-09T15:22:41.571Z,10.00
2023-04-09T15:25:08.734Z,10.60
2023-04-09T15:27:35.922Z,10.10
2023-04-09T15:30:02.642Z,9.80
2023-04-09T15:32:30.956Z,10.32
2023-04-09T15:34:57.879Z,10.40
2023-04-09T15:37:24.564Z,10.15
2023-04-09T15:39:51.536Z,10.38
2023-04-09T15:42:22.476Z,9.48
2023-04-09T15:44:50.371Z,10.38
2023-04-09T15:47:17.599Z,9.52
2023-04-09T15:49:44.289Z,10.05
2023-04-09T15:52:11.165Z,10.05
2023-04-09T15:54:37.951Z,9.82
2023-04-09T15:57:04.796Z,10.10
2023-04-09T15:59:33.562Z,10.38
2023-04-09T16:02:00.396Z,10.65
2023-04-09T16:04:27.626Z,9.95
2023-04-09T16:06:56.235Z,9.77
2023-04-09T16:11:51.090Z,9.80
2023-04-09T16:14:17.889Z,9.57
2023-04-09T16:16:49.430Z,9.88
2023-04-09T16:19:17.775Z,9.32
2023-04-09T16:21:45.493Z,8.90
2023-04-09T16:24:12.793Z,11.20
2023-04-09T16:26:41.076Z,9.60
2023-04-09T16:29:08.076Z,9.13
2023-04-09T16:31:36.355Z,9.05
2023-04-09T16:34:03.496Z,9.05
2023-04-09T16:36:31.528Z,8.52
2023-04-09T16:38:58.238Z,9.45
2023-04-09T16:41:25.314Z,8.55
2023-04-09T16:43:52.088Z,8.45
2023-04-09T16:46:18.756Z,9.30
2023-04-09T16:48:45.609Z,9.13
2023-04-09T16:51:12.481Z,8.55
2023-04-09T16:53:40.119Z,8.55
2023-04-09T16:56:07.854Z,8.70
2023-04-09T16:58:34.611Z,8.82
2023-04-09T17:01:02.130Z,8.60
2023-04-09T17:03:29.040Z,7.93
2023-04-09T17:05:57.171Z,8.57
2023-04-09T17:08:24.502Z,9.70
2023-04-09T17:10:52.093Z,9.20
2023-04-09T17:13:18.760Z,8.82
2023-04-09T17:15:45.440Z,9.75
2023-04-09T17:18:12.297Z,9.10
2023-04-09T17:20:39.098Z,8.93
2023-04-09T17:23:05.838Z,8.38
2023-04-09T17:25:32.535Z,9.07
2023-04-09T17:28:01.507Z,8.30
2023-04-09T17:30:28.261Z,9.25
2023-04-09T17:32:54.967Z,8.50
2023-04-09T17:35:21.786Z,9.07
2023-04-09T17:37:48.506Z,8.60
2023-04-09T17:40:16.823Z,8.32
2023-04-09T17:42:44.999Z,8.13
2023-04-09T17:45:12.072Z,9.60
2023-04-09T17:47:42.042Z,9.55
2023-04-09T17:50:09.158Z,8.90
2023-04-09T17:52:39.223Z,9.05
2023-04-09T17:55:11.708Z,8.48
2023-04-09T17:57:42.787Z,8.27
2023-04-09T18:00:10.997Z,8.15
2023-04-09T18:02:37.950Z,8.38
2023-04-09T18:05:05.323Z,7.60
2023-04-09T18:07:34.079Z,7.75
2023-04-09T18:10:04.892Z,8.93
2023-04-09T18:12:32.492Z,7.93
2023-04-09T18:14:59.247Z,7.00
2023-04-09T18:17:26.406Z,10.23
2023-04-09T18:19:58.402Z,10.35
2023-04-09T18:22:26.905Z,10.45
2023-04-09T18:24:54.227Z,8.88
2023-04-09T18:27:21.604Z,9.23
2023-04-09T18:29:51.177Z,8.07
2023-04-09T18:32:19.612Z,7.68
2023-04-09T18:34:47.594Z,7.47
2023-04-09T18:37:15.369Z,7.63
2023-04-09T18:39:42.091Z,7.63
2023-04-09T18:42:08.943Z,6.80
2023-04-09T18:44:37.471Z,7.60
2023-04-09T18:49:33.186Z,7.25
2023-04-09T18:52:01.893Z,6.85
2023-04-09T18:54:28.864Z,7.22
2023-04-09T18:56:57.456Z,7.32
2023-04-09T18:59:24.202Z,7.13
2023-04-09T19:01:51.018Z,7.43
2023-04-09T19:04:17.735Z,7.50
2023-04-09T19:06:46.499Z,7.55
2023-04-09T19:09:13.286Z,7.72
2023-04-09T19:11:40.162Z,7.72
2023-04-09T19:14:06.798Z,7.30
2023-04-09T19:16:33.506Z,7.15
2023-04-09T19:19:00.239Z,7.65
2023-04-09T19:21:28.852Z,7.57
2023-04-09T19:26:23.138Z,7.60
2023-04-09T19:28:49.884Z,7.50
2023-04-09T19:31:17.068Z,7.65
2023-04-09T19:33:43.983Z,7.40
2023-04-09T19:36:10.779Z,8.13
2023-04-09T19:38:37.506Z,7.90
2023-04-09T19:41:04.416Z,8.60
2023-04-09T19:43:31.306Z,8.80
2023-04-09T19:45:58.043Z,8.88
2023-04-09T19:48:25.049Z,10.27
2023-04-09T19:50:52.566Z,8.65
2023-04-09T19:53:19.760Z,10.85
2023-04-09T19:55:46.886Z,9.10
2023-04-09T19:58:13.978Z,8.95
2023-04-09T20:00:40.782Z,9.38
2023-04-09T20:03:08.173Z,9.68
2023-04-09T20:05:35.834Z,9.35
2023-04-09T20:08:03.065Z,9.13
2023-04-09T20:10:30.260Z,10.55
2023-04-09T20:12:57.883Z,9.70
2023-04-09T20:15:25.006Z,9.98
2023-04-09T20:17:53.472Z,8.57
2023-04-09T20:20:20.847Z,10.18
2023-04-09T20:22:55.507Z,9.52
2023-04-09T20:25:23.366Z,9.85
2023-04-09T20:27:50.828Z,9.98
2023-04-09T20:30:17.996Z,11.25
2023-04-09T20:32:45.128Z,11.38
2023-04-09T20:35:13.532Z,11.10
2023-04-09T20:37:40.290Z,11.07
2023-04-09T20:40:07.651Z,10.85
2023-04-09T20:42:34.921Z,11.93
2023-04-09T20:45:02.247Z,11.52
2023-04-09T20:47:30.385Z,11.43
2023-04-09T20:49:59.845Z,12.02
2023-04-09T20:52:30.550Z,12.90
2023-04-09T20:54:57.543Z,12.55
2023-04-09T20:57:24.570Z,12.45
2023-04-09T20:59:52.898Z,13.07
2023-04-09T21:02:20.359Z,13.13
2023-04-09T21:04:49.248Z,13.00
2023-04-09T21:07:16.161Z,13.23
2023-04-09T21:09:42.804Z,13.73
2023-04-09T21:12:09.556Z,13.05
2023-04-09T21:14:36.230Z,13.38
2023-04-09T21:17:02.942Z,14.68
2023-04-09T21:19:29.659Z,17.70
2023-04-09T21:21:56.459Z,15.95
2023-04-09T21:24:23.201Z,18.30
2023-04-09T21:26:51.720Z,20.48
2023-04-09T21:29:21.245Z,18.88
2023-04-09T21:31:49.007Z,20.95
2023-04-09T21:34:16.058Z,19.50
2023-04-09T21:36:44.985Z,44.47
2023-04-09T21:39:12.170Z,29.77
2023-04-09T21:41:39.305Z,27.40
2023-04-09T21:44:08.296Z,22.13
2023-04-09T21:46:37.081Z,18.98
2023-04-09T21:51:31.556Z,16.50
2023-04-09T21:54:05.268Z,15.65
2023-04-09T21:56:35.653Z,15.23
2023-04-09T21:59:02.959Z,15.18
2023-04-09T22:01:31.280Z,13.93
2023-04-09T22:03:59.542Z,13.80
2023-04-09T22:06:27.336Z,14.73
2023-04-09T22:08:56.882Z,14.55
2023-04-09T22:11:28.290Z,14.45
2023-04-09T22:13:56.710Z,15.50
2023-04-09T22:16:24.124Z,14.18
2023-04-09T22:18:52.594Z,14.82
2023-04-09T22:21:19.904Z,13.82
2023-04-09T22:23:46.979Z,13.18
2023-04-09T22:26:14.233Z,13.15
2023-04-09T22:28:41.459Z,12.77
2023-04-09T22:31:08.845Z,12.65
2023-04-09T22:33:35.974Z,13.73
2023-04-09T22:36:03.055Z,12.52
2023-04-09T22:38:30.179Z,11.95
2023-04-09T22:40:57.300Z,14.00
2023-04-09T22:43:24.496Z,12.02
2023-04-09T22:45:52.261Z,12.98
2023-04-09T22:48:19.942Z,13.17
2023-04-09T22:50:47.616Z,13.67
2023-04-09T22:53:18.652Z,13.23
2023-04-09T22:55:52.651Z,12.68
2023-04-09T22:58:19.814Z,14.10
2023-04-09T23:00:47.410Z,12.88
2023-04-09T23:03:15.052Z,13.07
2023-04-09T23:05:42.381Z,13.37
2023-04-09T23:08:09.698Z,13.95
2023-04-09T23:10:36.951Z,13.82
2023-04-09T23:13:03.783Z,14.50
2023-04-09T23:15:30.777Z,13.13
2023-04-09T23:17:57.594Z,13.70
2023-04-09T23:20:26.586Z,13.70
2023-04-09T23:22:53.322Z,13.80
2023-04-09T23:25:21.871Z,12.77
2023-04-09T23:30:16.995Z,13.93
2023-04-09T23:35:11.856Z,13.60
2023-04-09T23:37:39.900Z,13.57
2023-04-09T23:40:08.670Z,13.52
2023-04-09T23:42:35.627Z,12.73
2023-04-09T23:45:04.322Z,13.93
2023-04-09T23:50:05.722Z,13.48
2023-04-09T23:52:35.135Z,13.60
2023-04-09T23:55:03.359Z,13.23
2023-04-09T23:57:30.286Z,12.98
2023-04-09T23:59:57.218Z,12.43
